createdAt,value
2022-11-19T00:00:19.453Z,0.73
2022-11-19T00:02:46.813Z,0.90
2022-11-19T00:05:16.096Z,0.70
2022-11-19T00:07:58.319Z,0.83
2022-11-19T00:10:32.397Z,0.43
2022-11-19T00:13:08.279Z,0.57
2022-11-19T00:15:37.359Z,0.63
2022-11-19T00:18:13.405Z,1.13
2022-11-19T00:20:46.330Z,0.77
2022-11-19T00:23:21.358Z,0.73
2022-11-19T00:25:48.890Z,0.80
2022-11-19T00:28:16.384Z,0.60
2022-11-19T00:30:50.392Z,0.80
2022-11-19T00:33:17.842Z,0.70
2022-11-19T00:35:46.033Z,0.73
2022-11-19T00:38:20.326Z,0.87
2022-11-19T00:40:47.693Z,0.77
2022-11-19T00:43:40.331Z,0.73
2022-11-19T00:46:07.828Z,0.70
2022-11-19T00:48:35.427Z,0.50
2022-11-19T00:51:10.323Z,0.60
2022-11-19T00:53:37.837Z,1.70
2022-11-19T00:56:08.308Z,0.80
2022-11-19T00:58:43.336Z,1.00
2022-11-19T01:01:11.904Z,0.80
2022-11-19T01:03:40.524Z,0.83
2022-11-19T01:06:19.078Z,1.20
2022-11-19T01:09:07.313Z,0.90
2022-11-19T01:11:42.365Z,0.90
2022-11-19T01:14:10.067Z,1.00
2022-11-19T01:16:40.096Z,1.00
2022-11-19T01:19:17.767Z,1.20
2022-11-19T01:21:45.470Z,1.23
2022-11-19T01:24:12.842Z,1.10
2022-11-19T01:26:46.410Z,1.50
2022-11-19T01:29:14.199Z,1.30
2022-11-19T01:31:41.577Z,1.60
2022-11-19T01:34:15.364Z,1.40
2022-11-19T01:36:42.722Z,1.60
2022-11-19T01:39:10.072Z,1.40
2022-11-19T01:41:45.348Z,1.60
2022-11-19T01:45:07.209Z,1.77
2022-11-19T01:47:41.356Z,1.77
2022-11-19T01:50:08.934Z,2.10
2022-11-19T01:52:36.483Z,2.10
2022-11-19T01:55:14.479Z,2.50
2022-11-19T01:57:42.050Z,2.77
2022-11-19T02:00:10.307Z,2.67
2022-11-19T02:02:46.603Z,3.20
2022-11-19T02:05:14.577Z,2.83
2022-11-19T02:07:45.386Z,3.07
2022-11-19T02:10:19.656Z,3.67
2022-11-19T02:13:29.944Z,3.53
2022-11-19T02:16:30.665Z,3.47
2022-11-19T02:19:10.019Z,2.73
2022-11-19T02:22:37.881Z,2.80
2022-11-19T02:25:23.205Z,2.80
2022-11-19T02:28:43.621Z,2.97
2022-11-19T02:31:40.715Z,2.90
2022-11-19T02:34:57.625Z,3.20
2022-11-19T02:37:41.079Z,3.90
2022-11-19T02:40:25.630Z,3.40
2022-11-19T02:43:24.337Z,3.43
2022-11-19T02:46:27.793Z,3.67
2022-11-19T02:48:55.693Z,3.83
2022-11-19T02:51:23.672Z,3.80
2022-11-19T02:53:57.809Z,3.90
2022-11-19T02:56:54.847Z,4.03
2022-11-19T03:00:06.824Z,4.23
2022-11-19T03:03:00.888Z,3.67
2022-11-19T03:05:46.873Z,4.20
2022-11-19T03:08:34.843Z,3.80
2022-11-19T03:11:23.803Z,3.50
2022-11-19T03:14:12.699Z,3.70
2022-11-19T03:16:55.833Z,3.90
2022-11-19T03:19:36.503Z,3.40
2022-11-19T03:22:33.941Z,2.90
2022-11-19T03:25:10.112Z,2.90
2022-11-19T03:27:51.979Z,2.50
2022-11-19T03:30:20.246Z,2.50
2022-11-19T03:33:23.989Z,2.10
2022-11-19T03:35:56.007Z,2.33
2022-11-19T03:38:41.028Z,2.20
2022-11-19T03:41:09.884Z,2.47
2022-11-19T03:43:40.295Z,2.33
2022-11-19T03:46:20.963Z,2.60
2022-11-19T03:49:03.061Z,2.50
2022-11-19T03:51:57.974Z,2.70
2022-11-19T03:54:29.508Z,2.40
2022-11-19T03:56:58.892Z,2.63
2022-11-19T03:59:34.804Z,2.77
2022-11-19T04:02:10.663Z,2.27
2022-11-19T04:04:45.760Z,2.50
2022-11-19T04:07:22.126Z,2.20
2022-11-19T04:10:02.779Z,2.60
2022-11-19T04:12:30.193Z,2.30
2022-11-19T04:14:57.581Z,2.10
2022-11-19T04:17:31.763Z,1.87
2022-11-19T04:19:59.097Z,1.90
2022-11-19T04:22:26.477Z,1.70
2022-11-19T04:25:00.776Z,1.90
2022-11-19T04:27:28.115Z,1.70
2022-11-19T04:29:55.548Z,1.30
2022-11-19T04:32:29.796Z,1.47
2022-11-19T04:34:57.157Z,1.53
2022-11-19T04:37:24.566Z,1.40
2022-11-19T04:39:59.038Z,1.60
2022-11-19T04:42:27.819Z,1.20
2022-11-19T04:44:55.344Z,1.40
2022-11-19T04:47:28.776Z,1.13
2022-11-19T04:49:56.140Z,1.30
2022-11-19T04:52:23.490Z,1.20
2022-11-19T04:54:57.808Z,0.90
2022-11-19T04:57:25.194Z,1.00
2022-11-19T04:59:52.628Z,1.20
2022-11-19T05:02:29.779Z,1.00
2022-11-19T05:04:57.252Z,1.00
2022-11-19T05:07:24.661Z,1.30
2022-11-19T05:09:58.990Z,1.67
2022-11-19T05:12:26.434Z,1.50
2022-11-19T05:14:53.914Z,1.83
2022-11-19T05:17:27.816Z,2.40
2022-11-19T05:19:55.246Z,2.20
2022-11-19T05:22:23.667Z,2.03
2022-11-19T05:24:57.809Z,2.30
2022-11-19T05:27:25.642Z,2.10
2022-11-19T05:29:53.466Z,2.07
2022-11-19T05:32:27.918Z,1.80
2022-11-19T05:34:55.611Z,1.63
2022-11-19T05:37:23.159Z,1.70
2022-11-19T05:39:58.902Z,1.77
2022-11-19T05:42:26.464Z,2.10
2022-11-19T05:44:53.975Z,2.30
2022-11-19T05:47:30.018Z,2.40
2022-11-19T05:49:57.482Z,2.30
2022-11-19T05:52:25.226Z,2.60
2022-11-19T05:54:59.158Z,2.90
2022-11-19T05:57:26.848Z,2.77
2022-11-19T05:59:54.412Z,2.70
2022-11-19T06:02:28.102Z,2.63
2022-11-19T06:04:56.981Z,3.20
2022-11-19T06:07:24.440Z,3.30
2022-11-19T06:09:58.085Z,3.10
2022-11-19T06:12:25.703Z,3.13
2022-11-19T06:14:53.461Z,3.13
2022-11-19T06:17:27.219Z,3.30
2022-11-19T06:19:56.595Z,3.40
2022-11-19T06:22:24.233Z,3.30
2022-11-19T06:24:58.510Z,3.70
2022-11-19T06:27:25.931Z,3.10
2022-11-19T06:29:56.234Z,3.50
2022-11-19T06:32:30.728Z,3.00
2022-11-19T06:34:58.223Z,3.70
2022-11-19T06:37:25.832Z,3.60
2022-11-19T06:40:02.612Z,3.07
2022-11-19T06:42:38.160Z,3.57
2022-11-19T06:45:14.784Z,3.40
2022-11-19T06:47:42.963Z,3.27
2022-11-19T06:50:11.108Z,3.53
2022-11-19T06:52:44.738Z,3.03
2022-11-19T06:55:14.643Z,3.23
2022-11-19T06:57:42.040Z,3.70
2022-11-19T07:00:16.760Z,7.27
2022-11-19T07:02:44.204Z,3.73
2022-11-19T07:05:11.654Z,3.43
2022-11-19T07:07:45.804Z,7.30
2022-11-19T07:10:19.926Z,6.13
2022-11-19T07:12:53.723Z,4.77
2022-11-19T07:15:21.190Z,4.33
2022-11-19T07:17:49.005Z,4.47
2022-11-19T07:20:23.702Z,6.10
2022-11-19T07:22:54.875Z,3.40
2022-11-19T07:25:33.643Z,3.50
2022-11-19T07:28:02.861Z,3.37
2022-11-19T07:30:31.571Z,2.90
2022-11-19T07:33:06.087Z,9.03
2022-11-19T07:35:33.493Z,2.70
2022-11-19T07:38:00.998Z,6.60
2022-11-19T07:40:34.866Z,5.50
2022-11-19T07:43:02.472Z,3.37
2022-11-19T07:45:29.962Z,2.63
2022-11-19T07:48:03.905Z,2.57
2022-11-19T07:50:31.656Z,4.37
2022-11-19T07:53:00.280Z,2.97
2022-11-19T07:55:33.872Z,2.70
2022-11-19T07:58:01.379Z,2.70
2022-11-19T08:00:28.831Z,2.80
2022-11-19T08:03:03.063Z,2.90
2022-11-19T08:05:30.615Z,2.83
2022-11-19T08:07:58.094Z,2.90
2022-11-19T08:10:33.083Z,2.83
2022-11-19T08:13:03.700Z,3.30
2022-11-19T08:15:32.803Z,2.63
2022-11-19T08:18:19.001Z,2.87
2022-11-19T08:20:49.151Z,2.93
2022-11-19T08:23:19.400Z,2.60
2022-11-19T08:25:55.059Z,7.43
2022-11-19T08:28:23.077Z,3.80
2022-11-19T08:30:51.563Z,3.63
2022-11-19T08:33:28.199Z,2.90
2022-11-19T08:35:57.198Z,2.90
2022-11-19T08:38:25.023Z,3.47
2022-11-19T08:41:20.952Z,2.37
2022-11-19T08:43:49.489Z,3.30
2022-11-19T08:46:18.482Z,2.63
2022-11-19T08:48:53.309Z,3.53
2022-11-19T08:51:20.941Z,2.93
2022-11-19T08:53:51.669Z,2.67
2022-11-19T08:56:25.953Z,3.23
2022-11-19T08:59:01.265Z,3.30
2022-11-19T09:01:37.036Z,3.17
2022-11-19T09:04:04.963Z,3.43
2022-11-19T09:06:36.395Z,2.70
2022-11-19T09:09:12.947Z,3.03
2022-11-19T09:11:48.814Z,3.10
2022-11-19T09:14:23.017Z,3.07
2022-11-19T09:16:57.069Z,3.00
2022-11-19T09:19:36.586Z,2.77
2022-11-19T09:22:07.338Z,2.33
2022-11-19T09:24:43.656Z,2.80
2022-11-19T09:27:13.556Z,2.50
2022-11-19T09:29:41.712Z,2.60
2022-11-19T09:32:17.974Z,2.67
2022-11-19T09:34:48.741Z,2.57
2022-11-19T09:37:23.237Z,2.60
2022-11-19T09:40:08.433Z,2.50
2022-11-19T09:43:15.697Z,2.40
2022-11-19T09:46:04.091Z,2.53
2022-11-19T09:48:39.552Z,2.47
2022-11-19T09:51:21.664Z,1.80
2022-11-19T09:54:01.454Z,1.93
2022-11-19T09:56:45.961Z,1.80
2022-11-19T09:59:49.717Z,1.60
2022-11-19T10:02:22.927Z,1.63
2022-11-19T10:04:58.732Z,1.60
2022-11-19T10:07:57.271Z,1.50
2022-11-19T10:10:59.494Z,1.20
2022-11-19T10:13:49.933Z,1.37
2022-11-19T10:16:39.477Z,1.40
2022-11-19T10:19:19.158Z,1.67
2022-11-19T10:22:08.612Z,1.93
2022-11-19T10:24:42.295Z,1.40
2022-11-19T10:27:40.574Z,1.50
2022-11-19T10:30:18.349Z,1.20
2022-11-19T10:33:15.555Z,0.97
2022-11-19T10:35:57.706Z,1.30
2022-11-19T10:38:51.161Z,1.80
2022-11-19T10:41:58.343Z,1.50
2022-11-19T10:44:48.712Z,1.37
2022-11-19T10:47:37.721Z,1.57
2022-11-19T10:50:13.929Z,1.97
2022-11-19T10:52:47.409Z,1.63
2022-11-19T10:55:40.868Z,1.53
2022-11-19T10:58:13.470Z,1.40
2022-11-19T11:00:52.846Z,1.77
2022-11-19T11:03:45.024Z,2.00
2022-11-19T11:06:26.910Z,1.60
2022-11-19T11:08:58.564Z,1.80
2022-11-19T11:12:04.890Z,1.90
2022-11-19T11:14:55.808Z,1.63
2022-11-19T11:17:39.592Z,2.13
2022-11-19T11:20:19.132Z,1.70
2022-11-19T11:22:56.109Z,1.97
2022-11-19T11:25:28.001Z,1.93
2022-11-19T11:28:15.057Z,1.70
2022-11-19T11:31:09.716Z,1.80
2022-11-19T11:33:49.897Z,1.30
2022-11-19T11:36:21.099Z,0.90
2022-11-19T11:38:56.864Z,0.80
2022-11-19T11:44:33.857Z,0.80
2022-11-19T11:47:27.697Z,0.80
2022-11-19T11:50:15.855Z,0.90
2022-11-19T11:52:51.544Z,0.83
2022-11-19T11:55:32.695Z,1.00
2022-11-19T11:58:01.833Z,0.68
2022-11-19T12:00:45.941Z,1.10
2022-11-19T12:03:14.782Z,1.20
2022-11-19T12:06:21.961Z,1.10
2022-11-19T12:09:06.015Z,1.17
2022-11-19T12:12:25.006Z,1.23
2022-11-19T12:14:57.946Z,1.70
2022-11-19T12:17:55.922Z,1.30
2022-11-19T12:21:18.187Z,1.60
2022-11-19T12:24:23.019Z,1.60
2022-11-19T12:27:41.781Z,1.83
2022-11-19T12:30:37.070Z,1.97
2022-11-19T12:33:16.880Z,1.60
2022-11-19T12:36:12.116Z,2.13
2022-11-19T12:38:57.334Z,2.13
2022-11-19T12:42:22.309Z,2.17
2022-11-19T12:45:15.220Z,2.30
2022-11-19T12:48:10.342Z,2.10
2022-11-19T12:51:03.032Z,3.00
2022-11-19T12:54:06.334Z,2.50
2022-11-19T12:56:43.878Z,3.00
2022-11-19T12:59:44.275Z,3.37
2022-11-19T13:02:32.890Z,4.07
2022-11-19T13:05:36.168Z,3.07
2022-11-19T13:08:35.558Z,3.63
2022-11-19T13:11:28.420Z,2.90
2022-11-19T13:14:07.105Z,3.60
2022-11-19T13:16:46.319Z,3.90
2022-11-19T13:19:30.888Z,3.37
2022-11-19T13:22:24.377Z,3.70
2022-11-19T13:25:10.090Z,3.77
2022-11-19T13:27:45.442Z,3.70
2022-11-19T13:30:20.236Z,3.80
2022-11-19T13:33:28.309Z,3.73
2022-11-19T13:36:19.625Z,3.93
2022-11-19T13:39:20.510Z,3.73
2022-11-19T13:42:11.354Z,4.40
2022-11-19T13:44:47.475Z,3.87
2022-11-19T13:47:32.465Z,4.03
2022-11-19T13:50:33.903Z,3.73
2022-11-19T13:53:19.657Z,4.10
2022-11-19T13:55:54.540Z,3.90
2022-11-19T13:58:34.437Z,3.83
2022-11-19T14:01:14.598Z,4.23
2022-11-19T14:04:03.508Z,3.83
2022-11-19T14:07:06.392Z,3.60
2022-11-19T14:10:21.483Z,4.00
2022-11-19T14:13:25.620Z,4.20
2022-11-19T14:16:38.826Z,3.60
2022-11-19T14:19:42.879Z,3.73
2022-11-19T14:22:50.882Z,3.80
2022-11-19T14:26:05.306Z,3.23
2022-11-19T14:28:52.738Z,3.70
2022-11-19T14:31:40.341Z,3.27
2022-11-19T14:34:32.867Z,3.73
2022-11-19T14:37:23.445Z,5.93
2022-11-19T14:40:21.591Z,5.93
2022-11-19T14:43:26.264Z,3.37
2022-11-19T14:46:05.663Z,3.07
2022-11-19T14:49:00.083Z,3.20
2022-11-19T14:51:40.940Z,3.17
2022-11-19T14:54:22.350Z,2.90
2022-11-19T14:57:06.356Z,3.07
2022-11-19T14:59:45.190Z,2.80
2022-11-19T15:02:52.468Z,3.40
2022-11-19T15:05:36.095Z,3.60
2022-11-19T15:08:18.884Z,3.53
2022-11-19T15:11:22.883Z,3.10
2022-11-19T15:14:35.515Z,3.30
2022-11-19T15:17:15.086Z,3.43
2022-11-19T15:20:04.352Z,3.83
2022-11-19T15:23:16.323Z,3.73
2022-11-19T15:26:12.191Z,3.27
2022-11-19T15:29:06.096Z,3.57
2022-11-19T15:31:56.803Z,3.90
2022-11-19T15:34:56.256Z,3.37
2022-11-19T15:37:53.340Z,3.43
2022-11-19T15:40:33.180Z,4.23
2022-11-19T15:43:19.319Z,4.20
2022-11-19T15:46:28.813Z,3.93
2022-11-19T15:49:07.277Z,4.47
2022-11-19T15:51:58.233Z,4.83
2022-11-19T15:54:34.555Z,4.77
2022-11-19T15:57:23.407Z,5.17
2022-11-19T16:00:01.357Z,3.90
2022-11-19T16:02:49.230Z,4.83
2022-11-19T16:05:26.027Z,4.20
2022-11-19T16:08:01.159Z,4.50
2022-11-19T16:11:20.865Z,4.53
2022-11-19T16:14:21.412Z,4.90
2022-11-19T16:17:11.299Z,4.90
2022-11-19T16:19:45.182Z,4.80
2022-11-19T16:22:13.301Z,4.50
2022-11-19T16:25:06.130Z,4.73
2022-11-19T16:27:33.684Z,4.37
2022-11-19T16:30:01.183Z,9.40
2022-11-19T16:32:35.201Z,4.30
2022-11-19T16:35:26.503Z,4.03
2022-11-19T16:38:02.162Z,4.50
2022-11-19T16:40:50.393Z,4.03
2022-11-19T16:43:25.193Z,4.00
2022-11-19T16:45:52.660Z,5.53
2022-11-19T16:49:03.383Z,5.40
2022-11-19T16:51:54.362Z,5.10
2022-11-19T16:54:55.536Z,5.17
2022-11-19T16:57:27.234Z,5.40
2022-11-19T17:00:07.211Z,5.57
2022-11-19T17:02:40.388Z,5.50
2022-11-19T17:05:31.260Z,5.43
2022-11-19T17:08:18.629Z,6.20
2022-11-19T17:11:42.366Z,6.20
2022-11-19T17:14:43.308Z,6.60
2022-11-19T17:17:40.407Z,6.13
2022-11-19T17:20:27.810Z,5.70
2022-11-19T17:23:02.685Z,6.53
2022-11-19T17:25:30.355Z,6.23
2022-11-19T17:28:00.467Z,6.90
2022-11-19T17:30:40.190Z,6.57
2022-11-19T17:33:13.832Z,6.47
2022-11-19T17:35:54.657Z,6.97
2022-11-19T17:38:27.762Z,7.40
2022-11-19T17:41:03.325Z,6.67
2022-11-19T17:43:54.230Z,8.30
2022-11-19T17:46:33.162Z,7.43
2022-11-19T17:49:00.584Z,7.40
2022-11-19T17:51:28.446Z,7.80
2022-11-19T17:54:04.145Z,7.70
2022-11-19T17:56:31.896Z,7.70
2022-11-19T17:58:59.762Z,6.80
2022-11-19T18:01:34.199Z,6.03
2022-11-19T18:04:01.957Z,6.03
2022-11-19T18:06:31.290Z,6.13
2022-11-19T18:09:05.142Z,6.17
2022-11-19T18:11:39.333Z,7.57
2022-11-19T18:14:19.118Z,7.10
2022-11-19T18:16:46.615Z,6.20
2022-11-19T18:19:30.176Z,6.50
2022-11-19T18:21:57.936Z,6.87
2022-11-19T18:24:25.541Z,6.87
2022-11-19T18:26:59.190Z,7.60
2022-11-19T18:29:29.599Z,8.07
2022-11-19T18:31:57.029Z,7.33
2022-11-19T18:34:32.163Z,7.53
2022-11-19T18:36:59.841Z,7.13
2022-11-19T18:39:27.385Z,7.43
2022-11-19T18:42:02.216Z,7.63
2022-11-19T18:44:34.080Z,7.33
2022-11-19T18:47:20.192Z,7.97
2022-11-19T18:49:48.874Z,8.03
2022-11-19T18:52:16.393Z,7.27
2022-11-19T18:54:51.271Z,7.13
2022-11-19T18:57:18.748Z,7.50
2022-11-19T18:59:46.251Z,7.10
2022-11-19T19:02:20.379Z,7.27
2022-11-19T19:04:51.065Z,7.13
2022-11-19T19:07:18.903Z,6.20
2022-11-19T19:09:54.171Z,7.20
2022-11-19T19:12:28.355Z,7.73
2022-11-19T19:15:03.202Z,6.57
2022-11-19T19:17:33.027Z,6.67
2022-11-19T19:20:00.488Z,6.60
2022-11-19T19:22:36.186Z,7.17
2022-11-19T19:25:05.327Z,7.20
2022-11-19T19:27:33.304Z,8.13
2022-11-19T19:30:07.265Z,7.60
2022-11-19T19:32:34.786Z,8.00
2022-11-19T19:35:02.453Z,8.70
2022-11-19T19:37:36.264Z,8.53
2022-11-19T19:40:04.119Z,8.30
2022-11-19T19:42:31.658Z,9.07
2022-11-19T19:45:06.620Z,9.07
2022-11-19T19:47:34.400Z,7.63
2022-11-19T19:50:02.285Z,8.40
2022-11-19T19:52:36.459Z,8.70
2022-11-19T19:55:05.059Z,7.93
2022-11-19T19:57:34.096Z,7.87
2022-11-19T20:00:09.233Z,8.43
2022-11-19T20:02:37.003Z,8.37
2022-11-19T20:05:05.263Z,7.83
2022-11-19T20:07:40.347Z,8.37
2022-11-19T20:10:15.395Z,7.83
2022-11-19T20:13:14.219Z,8.00
2022-11-19T20:15:41.854Z,8.53
2022-11-19T20:18:10.587Z,8.67
2022-11-19T20:20:45.208Z,8.77
2022-11-19T20:23:12.896Z,8.77
2022-11-19T20:25:40.424Z,7.90
2022-11-19T20:28:14.232Z,8.67
2022-11-19T20:30:41.835Z,8.57
2022-11-19T20:33:09.428Z,8.40
2022-11-19T20:35:43.203Z,8.37
2022-11-19T20:38:12.507Z,8.13
2022-11-19T20:40:41.382Z,8.23
2022-11-19T20:43:37.379Z,8.30
2022-11-19T20:46:13.180Z,8.20
2022-11-19T20:48:49.435Z,7.87
2022-11-19T20:51:19.970Z,7.53
2022-11-19T20:53:47.623Z,8.67
2022-11-19T20:56:21.619Z,7.93
2022-11-19T20:58:49.461Z,7.83
2022-11-19T21:01:17.388Z,8.17
2022-11-19T21:03:51.479Z,8.27
2022-11-19T21:06:19.377Z,7.17
2022-11-19T21:08:47.006Z,7.47
2022-11-19T21:11:25.592Z,6.80
2022-11-19T21:13:59.695Z,6.57
2022-11-19T21:16:35.484Z,7.13
2022-11-19T21:19:04.199Z,6.47
2022-11-19T21:21:33.058Z,6.70
2022-11-19T21:24:10.367Z,6.80
2022-11-19T21:26:38.103Z,7.30
2022-11-19T21:29:05.758Z,6.60
2022-11-19T21:31:45.499Z,6.90
2022-11-19T21:34:15.931Z,6.97
2022-11-19T21:36:44.533Z,7.17
2022-11-19T21:39:23.793Z,7.37
2022-11-19T21:41:51.497Z,7.33
2022-11-19T21:44:21.877Z,6.90
2022-11-19T21:46:56.539Z,6.60
2022-11-19T21:49:24.431Z,7.30
2022-11-19T21:51:53.238Z,6.93
2022-11-19T21:54:28.433Z,7.23
2022-11-19T21:56:56.757Z,6.67
2022-11-19T21:59:24.475Z,6.67
2022-11-19T22:01:58.524Z,6.67
2022-11-19T22:04:26.217Z,6.20
2022-11-19T22:06:54.154Z,6.33
2022-11-19T22:09:28.557Z,5.87
2022-11-19T22:12:02.927Z,6.33
2022-11-19T22:14:36.444Z,5.67
2022-11-19T22:17:04.257Z,6.20
2022-11-19T22:19:32.056Z,5.97
2022-11-19T22:22:06.572Z,5.93
2022-11-19T22:24:34.137Z,6.17
2022-11-19T22:27:01.739Z,5.97
2022-11-19T22:29:35.779Z,6.10
2022-11-19T22:32:03.417Z,5.70
2022-11-19T22:34:31.152Z,5.90
2022-11-19T22:37:05.548Z,5.53
2022-11-19T22:39:33.136Z,5.57
2022-11-19T22:42:00.899Z,5.77
2022-11-19T22:44:35.630Z,5.30
2022-11-19T22:47:03.263Z,5.30
2022-11-19T22:49:31.103Z,5.03
2022-11-19T22:52:05.415Z,5.57
2022-11-19T22:54:36.141Z,5.23
2022-11-19T22:57:14.453Z,5.13
2022-11-19T22:59:42.193Z,4.93
2022-11-19T23:02:12.723Z,5.23
2022-11-19T23:04:46.424Z,4.50
2022-11-19T23:07:13.947Z,4.67
2022-11-19T23:09:42.008Z,4.87
2022-11-19T23:12:35.529Z,4.60
2022-11-19T23:15:03.446Z,4.73
2022-11-19T23:17:31.065Z,4.93
2022-11-19T23:20:05.483Z,4.40
2022-11-19T23:22:33.000Z,4.00
2022-11-19T23:25:01.126Z,4.50
2022-11-19T23:27:35.459Z,4.70
2022-11-19T23:30:03.044Z,4.40
2022-11-19T23:32:30.531Z,4.30
2022-11-19T23:35:04.426Z,4.53
2022-11-19T23:37:31.883Z,4.37
2022-11-19T23:39:59.341Z,3.87
2022-11-19T23:42:33.432Z,4.63
2022-11-19T23:45:01.005Z,4.07
2022-11-19T23:47:28.465Z,3.87
2022-11-19T23:50:02.595Z,4.07
2022-11-19T23:52:30.090Z,3.80
2022-11-19T23:54:57.699Z,4.03
2022-11-19T23:57:31.625Z,3.90
2022-11-19T23:59:59.270Z,4.30
